Du har inga inställningar för hoppväder.nu

Hoppväder.nu

Senast uppdaterat 07:47

UTC-tid

2018-07-23 kl. 05:47


Sol och måne

Solen går upp 4:18 och går ner 21:50 (beräknade cirkatider)
Nästa fullmåne blir om 4 dagar (2018-07-27)

METAR

ESSD (Borlänge)
(27 minuter sedan)
ESSD 230520Z AUTO 20005KT 170V230 9999 NCD 16/15 Q1009=



ESOE (Örebro)
(27 minuter sedan)
ESOE 230520Z 23006KT 200V270 9999 SCT019 18/15 Q1010=



ESOW (Västerås)
(27 minuter sedan)
ESOW 230520Z AUTO 23007KT 200V270 9999 OVC053/// 18/13 Q1010=



ESOK (Karlstad)
(27 minuter sedan)
ESOK 230520Z 22005KT 9999 OVC010 16/14 Q1009=






TAF

ESSD (Borlänge)
ESSD



ESOE (Örebro)
(197 minuter sedan)
ESOE 230230Z 2303/2306 21005KT 9999 BKN020 PROB40 2303/2306 BKN014=



ESOW (Västerås)
(17 minuter sedan)
ESOW 230530Z 2306/2315 23007KT CAVOK=



ESOK (Karlstad)
(17 minuter sedan)
ESOK 230530Z 2306/2314 23005KT 9999 BKN009 BECMG 2306/2308 CAVOK=





Kodnycklar till TAF och METAR






LHP

(Borlänge är område F2a i Norra delen)

ÄNDRAD ÖVERSIKT FÖR OMRÅDE B UTFÄRDAD 230455
GÄLLANDE DEN 23 JULI 2018 MELLAN 04 OCH 12 UTC


Väderöversikt

En högtrycksrygg täcker södra Sverige

Sikt under 5 kilometer eller molnbas under 1000 fot
04-06UTC: I hela området
06-08UTC: Område Nordvästra delen och Södra delen


Måttlig eller svår isbildning
Väntas inte förekomma under perioden

Måttlig eller svår turbulens
Väntas inte förekomma under perioden



ÄNDRAD PROGNOS FÖR OMRÅDE B DEN NORRA DELEN UTFÄRDAD 230455
GÄLLANDE DEN 23 JULI 2018 MELLAN 04 OCH 12 UTC

Måttlig eller svår turbulens
04-12UTC: I hela området: Väntas inte förekomma under perioden

Måttlig eller svår isbildning
04-12UTC: I hela området: Väntas inte förekomma under perioden

Sikt/Väder/Moln
04-06UTC: Område F2a,F2b: Sikt <1.5km - >8km i dis, höga dimbankar. Molnbas <500ft - >2000ft.
Område F1b: Sikt >8km. Molnbas 500ft - >2000ft.

04-12UTC: Område F1a,F2c,F2d: Sikt >8km. Molnbas >2000ft.

06-12UTC: Område F1b,F2a,F2b: Sikt >8km. Molnbas >2000ft.


Molnöversida
04-12UTC: I hela området: Ingen prognos

CB/TCU Moln
04-12UTC: I hela området: Väntas inte förekomma under perioden

Nollgradersisoterm
04-12UTC: Noll grader FL115 - > FL125.

Vind vid marken
04-06UTC: Område F2c: S-SV/1-7 knop, byar upp till 12 knop.
Område F2b: SV/1-6 knop, byar upp till 14 knop.
Område F2d: S-SV/1-5 knop.
Område F1a: S-SV/4-13 knop, byar upp till 17 knop.
Område F1b: SV/1-11 knop, byar upp till 15 knop.
Område F2a: SV/0-9 knop, byar upp till 14 knop.

06-08UTC: Område F1b: S-SV/0-12 knop, byar upp till 17 knop.
Område F2d: S-SV/3-7 knop, byar upp till 15 knop.
Område F2b: SV/3-5 knop.
Område F1a: S-SV/4-14 knop, byar upp till 17 knop.
Område F2c: S-SV/3-7 knop, byar upp till 16 knop.
Område F2a: SV/2-8 knop, byar upp till 16 knop.

08-10UTC: Område F2d: S-SV/4-8 knop, byar upp till 18 knop.
Område F1a: S-SV/5-13 knop, byar upp till 19 knop.
Område F1b: S/2-12 knop, byar upp till 20 knop.
Område F2c: S-SV/3-8 knop, byar upp till 19 knop.
Område F2a: SV/3-9 knop, byar upp till 19 knop.
Område F2b: SV/2-5 knop, byar upp till 14 knop.

10-12UTC: Område F2c: S-SV/3-6 knop, byar upp till 17 knop.
Område F1b: S/3-18 knop, byar upp till 23 knop.
Område F1a: S/3-15 knop, byar upp till 21 knop.
Område F2b: SV/2-5 knop, byar upp till 16 knop.
Område F2a: SV/2-8 knop, byar upp till 18 knop.
Område F2d: S-SV/3-7 knop, byar upp till 18 knop.


Vind och temperatur
2000ft:
04-06UTC: 230/18kt +14.
06-08UTC: 220/17kt +13.
08-10UTC: 220/16kt +13.
10-12UTC: 220/14kt +15.

FL50:
04-06UTC: 230/24kt +7.
06-08UTC: 240/19kt +8.
08-10UTC: 250/18kt +8.
10-12UTC: 250/19kt +8.

FL100:
04-06UTC: 190/14kt +1.
06-08UTC: 190/12kt +1.
08-10UTC: 180/12kt +1.
10-12UTC: 170/12kt +1.

Lägsta QNH
1008 hPa, lägst i norr.

OBS! endast utbredd måttlig eller svår isbildning och turbulens prognostiseras i LLF.
Avsaknad av isbildning och turbulens i prognosen utesluter inte förekomst av lätt isbildning och turbulens.
För indikation på lätt isbildning, var vänlig kontrollera om prognosen för molntopp ligger högre än nollgradersisotermen.
Förekomst av TCU eller CB medför alltid en risk för måttlig eller svår isbildning och turbulens även om det inte framgår explicit av prognosen.





Spotting

Hur fungerar spotthjälpen och Vindkartan?

Markvind är ca 0-5 m/s med byar på 7 m/s.
Vind på 600 m ca 9 m/s.
Vind på 1500 m ca 12 m/s.
Vind på 3000 m ca 7 m/s.
Rudolf-David flyger ca 34 m/s över marken på finalen.
Du driver ca 324 m bakåt i frifall. (432 m)
Lämplig spot är 1 sekunder eller 34 m efter gropen.
(4 s eller 136 m)
För små grupper eller ensamhoppare bör man vänta 4-6 sekunder mellan grupperna.
För större grupper bör man vänta 9-11 sekunder mellan grupperna.


Vindkartan

Senast uppdaterad 07:47




All data kommer från LFV.se